Time;durP1;ratioP1;P1;durP2;ratioP2;P2;SDS_P1;SDS_P2;PMS_P1;PMS_P2;Temp;Humidity;BMP_temperature;BMP_pressure;BME280_temperature;BME280_humidity;BME280_pressure;Samples;Min_cycle;Max_cycle;Signal;HPM_P1;HPM_P2
2023/12/28 00:01:33;;;;;;;27.70;14.40;;;;;;;-1.88;68.67;102355.92;107216;1258;111664;-65
2023/12/28 00:04:02;;;;;;;29.30;13.80;;;;;;;-1.93;68.88;102358.62;107294;1258;108612;-65
2023/12/28 00:06:30;;;;;;;25.30;13.80;;;;;;;-1.96;68.80;102353.02;107222;1259;107375;-65
2023/12/28 00:09:00;;;;;;;29.10;14.00;;;;;;;-2.01;69.06;102355.20;107221;1259;97835;-65
2023/12/28 00:11:39;;;;;;;40.20;15.70;;;;;;;-2.08;69.11;102363.16;107387;1254;97711;-66
2023/12/28 00:14:07;;;;;;;40.80;18.70;;;;;;;-2.12;68.93;102368.67;107319;1254;110557;-65
2023/12/28 00:16:37;;;;;;;51.40;21.40;;;;;;;-2.14;68.99;102369.90;107198;1257;108547;-65
2023/12/28 00:19:06;;;;;;;47.10;19.10;;;;;;;-2.18;69.47;102371.35;107229;1257;108233;-65
2023/12/28 00:21:34;;;;;;;37.30;16.30;;;;;;;-2.21;68.88;102371.03;107256;1258;97892;-64
2023/12/28 00:24:04;;;;;;;58.30;23.50;;;;;;;-2.23;69.23;102372.98;107292;1257;97928;-65
2023/12/28 00:26:32;;;;;;;91.60;34.70;;;;;;;-2.26;69.16;102380.39;107254;1257;110305;-65
2023/12/28 00:29:04;;;;;;;98.00;38.30;;;;;;;-2.29;69.31;102376.73;107212;1257;106618;-64
2023/12/28 00:31:32;;;;;;;60.40;22.00;;;;;;;-2.31;69.02;102374.09;107180;1258;108624;-65
2023/12/28 00:34:01;;;;;;;75.30;31.10;;;;;;;-2.33;69.26;102377.64;107276;1257;97930;-65
2023/12/28 00:36:29;;;;;;;57.00;22.80;;;;;;;-2.36;69.23;102376.43;107242;1257;97932;-66
2023/12/28 00:38:58;;;;;;;58.30;21.40;;;;;;;-2.37;69.47;102381.88;107234;1257;111332;-66
2023/12/28 00:41:26;;;;;;;46.40;19.60;;;;;;;-2.38;69.52;102382.97;107217;1258;107725;-66
2023/12/28 00:43:54;;;;;;;32.10;15.10;;;;;;;-2.38;69.23;102381.02;107205;1258;107827;-66
2023/12/28 00:46:23;;;;;;;33.80;15.40;;;;;;;-2.40;69.75;102380.52;107178;1257;97858;-66
2023/12/28 00:48:51;;;;;;;43.90;18.40;;;;;;;-2.42;69.44;102376.13;107189;1257;97812;-65
2023/12/28 00:51:21;;;;;;;43.20;19.00;;;;;;;-2.42;69.08;102372.09;107192;1258;111605;-65
2023/12/28 00:53:49;;;;;;;35.90;16.10;;;;;;;-2.43;69.49;102376.15;107309;1258;108741;-65
2023/12/28 00:56:20;;;;;;;31.00;15.20;;;;;;;-2.44;69.43;102370.88;107164;1260;108322;-64
2023/12/28 00:58:48;;;;;;;27.80;14.40;;;;;;;-2.44;69.78;102368.23;107217;1257;97917;-66
2023/12/28 01:01:17;;;;;;;26.30;13.90;;;;;;;-2.43;70.30;102372.80;107289;1257;97973;-63
2023/12/28 01:03:46;;;;;;;27.80;13.80;;;;;;;-2.44;70.33;102371.94;107134;1257;111952;-61
2023/12/28 01:06:14;;;;;;;40.60;18.80;;;;;;;-2.41;70.45;102373.84;107229;1257;108365;-60
2023/12/28 01:08:43;;;;;;;33.30;15.40;;;;;;;-2.38;70.70;102369.43;107198;1257;107494;-63
2023/12/28 01:11:12;;;;;;;45.00;13.90;;;;;;;-2.34;70.93;102370.63;107289;1257;97835;-61
2023/12/28 01:13:41;;;;;;;33.10;13.60;;;;;;;-2.32;70.56;102369.38;107197;1257;98373;-62
2023/12/28 01:16:13;;;;;;;23.20;12.20;;;;;;;-2.29;71.26;102360.21;107201;1257;111999;-61
2023/12/28 01:18:41;;;;;;;26.80;12.40;;;;;;;-2.27;70.95;102358.23;107209;1257;108669;-62
2023/12/28 01:21:10;;;;;;;29.60;13.80;;;;;;;-2.23;70.84;102355.58;107258;1257;108267;-62
2023/12/28 01:23:38;;;;;;;27.50;13.50;;;;;;;-2.18;70.83;102356.92;107198;1257;97709;-63
2023/12/28 01:26:15;;;;;;;23.80;12.40;;;;;;;-2.14;70.77;102349.16;107253;1258;97761;-64
2023/12/28 01:28:43;;;;;;;35.20;13.00;;;;;;;-2.09;70.73;102340.67;107228;1260;116302;-62
2023/12/28 01:31:12;;;;;;;25.80;11.90;;;;;;;-2.05;70.94;102334.83;107275;1257;107784;-63
2023/12/28 01:33:41;;;;;;;28.30;12.70;;;;;;;-2.03;70.95;102333.24;107229;1257;106732;-62
2023/12/28 01:36:19;;;;;;;38.40;13.40;;;;;;;-2.03;70.53;102333.05;107232;1258;97857;-63
2023/12/28 01:38:48;;;;;;;35.40;12.90;;;;;;;-2.06;70.35;102333.80;107245;1260;98369;-61
2023/12/28 01:41:17;;;;;;;37.60;14.90;;;;;;;-2.10;70.56;102329.62;107217;1257;111440;-63
2023/12/28 01:43:45;;;;;;;31.20;14.90;;;;;;;-2.15;70.36;102318.94;107282;1258;109266;-61
2023/12/28 01:46:19;;;;;;;33.60;16.20;;;;;;;-2.19;69.92;102311.95;107263;1257;108380;-62
2023/12/28 01:48:49;;;;;;;25.30;13.60;;;;;;;-2.25;70.14;102310.26;107267;1257;97851;-63
2023/12/28 01:51:20;;;;;;;29.70;12.80;;;;;;;-2.31;69.57;102314.18;107398;1255;97738;-64
2023/12/28 01:53:52;;;;;;;28.60;12.90;;;;;;;-2.38;69.86;102316.70;107306;1257;110795;-61
2023/12/28 01:56:21;;;;;;;31.60;13.50;;;;;;;-2.45;69.62;102315.71;107179;1257;108503;-63
2023/12/28 01:58:52;;;;;;;29.60;13.20;;;;;;;-2.52;69.67;102315.08;107218;1257;105559;-62
2023/12/28 02:01:21;;;;;;;30.50;14.10;;;;;;;-2.60;69.47;102319.55;107175;1260;97931;-62
2023/12/28 02:03:50;;;;;;;27.40;12.90;;;;;;;-2.67;69.45;102323.29;107282;1257;97725;-62
2023/12/28 02:06:23;;;;;;;28.50;13.10;;;;;;;-2.69;69.67;102322.42;107170;1257;111133;-65
2023/12/28 02:08:51;;;;;;;29.10;12.90;;;;;;;-2.73;69.60;102315.08;107258;1256;107153;-62
2023/12/28 02:11:20;;;;;;;35.20;15.70;;;;;;;-2.76;69.77;102313.71;107172;1260;108253;-64
2023/12/28 02:13:49;;;;;;;29.10;15.20;;;;;;;-2.79;69.71;102313.37;107190;1257;97873;-62
2023/12/28 02:16:26;;;;;;;39.70;14.20;;;;;;;-2.80;69.55;102315.32;107219;1257;97738;-63
2023/12/28 02:18:57;;;;;;;31.10;13.80;;;;;;;-2.85;69.90;102317.98;107249;1257;111107;-63
2023/12/28 02:21:28;;;;;;;26.60;12.50;;;;;;;-2.87;70.06;102317.67;107276;1257;108716;-63
2023/12/28 02:23:56;;;;;;;29.50;13.00;;;;;;;-2.90;69.94;102317.32;107227;1256;106840;-62
2023/12/28 02:26:24;;;;;;;25.40;13.20;;;;;;;-2.94;70.31;102314.36;107251;1257;97724;-63
2023/12/28 02:28:54;;;;;;;26.60;13.30;;;;;;;-2.96;70.12;102312.80;107235;1257;97716;-62
2023/12/28 02:31:32;;;;;;;25.70;12.20;;;;;;;-2.99;69.94;102309.48;107171;1257;111129;-63
2023/12/28 02:34:08;;;;;;;25.30;12.30;;;;;;;-3.01;70.27;102309.48;107257;1257;107065;-62
2023/12/28 02:36:44;;;;;;;29.20;12.60;;;;;;;-3.02;70.09;102315.65;107225;1258;107583;-64
2023/12/28 02:39:15;;;;;;;22.30;11.50;;;;;;;-3.05;70.16;102320.41;107175;1259;97882;-63
2023/12/28 02:41:45;;;;;;;28.00;12.10;;;;;;;-3.09;70.19;102319.56;107290;1257;97861;-67
2023/12/28 02:44:13;;;;;;;21.90;11.60;;;;;;;-3.12;69.50;102325.36;107175;1257;111392;-62
2023/12/28 02:46:41;;;;;;;23.60;11.60;;;;;;;-3.12;70.05;102332.05;107219;1260;106834;-62
2023/12/28 02:49:11;;;;;;;24.80;11.10;;;;;;;-3.12;70.02;102340.64;107310;1257;108624;-63
2023/12/28 02:51:41;;;;;;;25.80;12.30;;;;;;;-3.12;70.32;102343.27;107128;1256;99464;-62
2023/12/28 02:54:11;;;;;;;22.10;12.40;;;;;;;-3.10;70.00;102351.34;107289;1257;97828;-61
2023/12/28 02:56:41;;;;;;;25.10;12.00;;;;;;;-3.08;70.40;102360.11;107233;1256;112814;-63
2023/12/28 02:59:10;;;;;;;24.20;11.30;;;;;;;-3.06;70.97;102353.95;107186;1256;108614;-63
2023/12/28 03:01:39;;;;;;;19.80;10.70;;;;;;;-3.02;70.83;102339.52;107205;1257;108400;-62
2023/12/28 03:04:09;;;;;;;21.50;11.70;;;;;;;-2.97;71.08;102332.11;107249;1256;97852;-64
2023/12/28 03:06:40;;;;;;;18.70;10.50;;;;;;;-2.93;70.96;102324.02;107291;1257;99633;-64
2023/12/28 03:09:08;;;;;;;28.70;10.90;;;;;;;-2.92;71.09;102318.75;107244;1257;110235;-64
2023/12/28 03:11:37;;;;;;;24.70;10.20;;;;;;;-2.91;71.29;102315.03;107258;1257;107462;-62
2023/12/28 03:14:05;;;;;;;29.00;10.90;;;;;;;-2.90;71.60;102309.07;107126;1255;107750;-62
2023/12/28 03:16:34;;;;;;;17.10;10.70;;;;;;;-2.87;71.62;102297.81;107216;1256;97851;-63
2023/12/28 03:19:02;;;;;;;23.40;10.10;;;;;;;-2.85;71.85;102294.98;107219;1257;97944;-64
2023/12/28 03:21:31;;;;;;;24.40;10.40;;;;;;;-2.85;71.95;102294.46;107253;1257;111837;-63
2023/12/28 03:24:01;;;;;;;21.60;10.40;;;;;;;-2.82;71.68;102289.16;107265;1260;107394;-63
2023/12/28 03:26:30;;;;;;;22.60;11.00;;;;;;;-2.78;71.59;102289.83;107177;1256;108675;-61
2023/12/28 03:28:58;;;;;;;20.50;8.70;;;;;;;-2.75;71.73;102261.90;107208;1256;97860;-62
2023/12/28 03:31:26;;;;;;;20.20;9.50;;;;;;;-2.71;72.11;102249.73;107272;1257;97748;-63
2023/12/28 03:33:55;;;;;;;24.30;10.60;;;;;;;-2.66;72.02;102227.73;107263;1257;110545;-62
2023/12/28 03:36:24;;;;;;;20.70;10.90;;;;;;;-2.61;72.08;102214.34;107220;1257;108600;-62
2023/12/28 03:38:53;;;;;;;24.00;11.90;;;;;;;-2.56;71.72;102221.31;107312;1257;107595;-61
2023/12/28 03:41:21;;;;;;;26.70;10.60;;;;;;;-2.52;71.97;102222.49;107287;1257;97874;-62
2023/12/28 03:43:50;;;;;;;25.10;11.00;;;;;;;-2.48;72.01;102222.63;107234;1256;97828;-62
2023/12/28 03:46:19;;;;;;;24.10;10.30;;;;;;;-2.51;71.60;102235.15;107139;1257;111998;-64
2023/12/28 03:48:47;;;;;;;32.80;12.40;;;;;;;-2.59;71.28;102247.87;107097;1257;106904;-62
2023/12/28 03:51:16;;;;;;;23.60;11.80;;;;;;;-2.74;70.76;102249.95;107265;1257;107874;-62
2023/12/28 03:53:45;;;;;;;24.00;12.60;;;;;;;-2.88;71.09;102255.48;107182;1257;99214;-63
2023/12/28 03:56:27;;;;;;;25.60;11.20;;;;;;;-2.94;71.16;102261.88;107238;1257;98390;-62
2023/12/28 03:58:56;;;;;;;23.20;11.00;;;;;;;-3.01;71.74;102274.05;107303;1257;112059;-61
2023/12/28 04:01:24;;;;;;;23.10;11.00;;;;;;;-3.06;71.74;102283.02;107204;1257;107086;-62
2023/12/28 04:03:52;;;;;;;27.40;10.40;;;;;;;-3.08;71.28;102265.50;107281;1259;107298;-62
2023/12/28 04:06:21;;;;;;;22.20;11.50;;;;;;;-3.12;71.42;102247.96;107263;1256;97829;-63
2023/12/28 04:08:50;;;;;;;27.90;12.50;;;;;;;-3.14;71.40;102238.70;107223;1257;97962;-62
2023/12/28 04:11:18;;;;;;;25.80;12.30;;;;;;;-3.16;71.88;102235.89;107248;1256;111928;-61
2023/12/28 04:13:47;;;;;;;28.40;11.00;;;;;;;-3.17;71.72;102226.77;107307;1257;108546;-61
2023/12/28 04:16:16;;;;;;;28.90;11.40;;;;;;;-3.17;71.83;102224.32;107247;1256;107119;-61
2023/12/28 04:18:44;;;;;;;21.60;10.90;;;;;;;-3.17;71.58;102219.05;107249;1259;97861;-63
2023/12/28 04:21:13;;;;;;;20.20;11.10;;;;;;;-3.19;71.71;102222.23;107287;1257;98463;-61
2023/12/28 04:23:42;;;;;;;19.80;9.60;;;;;;;-3.23;71.27;102228.40;107283;1257;111805;-62
2023/12/28 04:26:10;;;;;;;17.10;9.40;;;;;;;-3.26;71.47;102221.23;107177;1256;106943;-61
2023/12/28 04:28:39;;;;;;;25.90;10.10;;;;;;;-3.28;71.70;102232.48;107144;1257;108387;-66
2023/12/28 04:31:08;;;;;;;17.90;8.50;;;;;;;-3.32;71.74;102251.98;107177;1257;97847;-64
2023/12/28 04:33:37;;;;;;;15.90;9.00;;;;;;;-3.34;71.48;102254.44;107082;1261;97957;-65
2023/12/28 04:36:06;;;;;;;19.80;9.10;;;;;;;-3.35;71.89;102255.67;107164;1257;112101;-64
2023/12/28 04:38:34;;;;;;;19.90;9.50;;;;;;;-3.36;72.01;102249.02;107153;1255;108576;-62
2023/12/28 04:41:04;;;;;;;18.10;9.20;;;;;;;-3.38;72.17;102233.77;107185;1256;107776;-65
2023/12/28 04:43:32;;;;;;;19.00;9.80;;;;;;;-3.37;72.21;102220.63;107150;1256;97887;-62
2023/12/28 04:46:05;;;;;;;16.00;9.60;;;;;;;-3.34;72.21;102212.52;107354;1257;97755;-61
2023/12/28 04:48:34;;;;;;;19.40;9.60;;;;;;;-3.29;72.31;102206.67;107297;1257;110173;-66
2023/12/28 04:51:05;;;;;;;24.60;10.60;;;;;;;-3.22;73.23;102214.01;107171;1256;108340;-63
2023/12/28 04:53:33;;;;;;;18.10;8.50;;;;;;;-3.16;73.24;102203.60;107248;1256;108636;-62
2023/12/28 04:56:04;;;;;;;19.50;8.50;;;;;;;-3.08;73.24;102199.69;107249;1256;97957;-63
2023/12/28 04:58:32;;;;;;;18.60;8.90;;;;;;;-3.02;73.43;102199.98;107209;1256;97842;-62
2023/12/28 05:01:02;;;;;;;21.10;8.10;;;;;;;-2.99;73.26;102200.12;107238;1257;110640;-63
2023/12/28 05:03:31;;;;;;;16.40;8.40;;;;;;;-2.99;73.21;102186.78;107168;1257;107208;-62
2023/12/28 05:06:02;;;;;;;16.40;8.40;;;;;;;-2.97;72.92;102185.19;107274;1257;107689;-64
2023/12/28 05:08:30;;;;;;;21.30;8.10;;;;;;;-2.93;73.10;102181.64;107309;1257;97793;-64
2023/12/28 05:10:58;;;;;;;15.70;7.90;;;;;;;-2.87;73.62;102183.52;107187;1256;98376;-64
2023/12/28 05:13:28;;;;;;;30.20;7.40;;;;;;;-2.84;73.31;102183.31;107184;1256;109529;-62
2023/12/28 05:15:57;;;;;;;15.00;7.20;;;;;;;-2.87;72.98;102182.27;107177;1256;108330;-62
2023/12/28 05:18:26;;;;;;;17.20;7.50;;;;;;;-2.85;73.02;102185.60;107119;1256;108388;-61
2023/12/28 05:20:55;;;;;;;18.30;8.90;;;;;;;-2.82;73.35;102183.46;107163;1260;97963;-62
2023/12/28 05:23:23;;;;;;;15.70;8.40;;;;;;;-2.80;72.84;102180.29;107219;1256;97936;-62
2023/12/28 05:25:51;;;;;;;23.30;9.40;;;;;;;-2.80;72.95;102179.92;107290;1257;111319;-61
2023/12/28 05:28:20;;;;;;;17.50;8.90;;;;;;;-2.79;73.22;102182.38;107195;1259;107007;-62
2023/12/28 05:30:48;;;;;;;21.60;9.00;;;;;;;-2.76;73.24;102186.20;107130;1257;108205;-62
2023/12/28 05:33:17;;;;;;;13.20;7.80;;;;;;;-2.73;73.16;102182.14;107168;1260;97824;-63
2023/12/28 05:35:45;;;;;;;14.20;8.40;;;;;;;-2.71;72.99;102175.80;107142;1256;97867;-61
2023/12/28 05:38:14;;;;;;;16.40;7.60;;;;;;;-2.73;72.93;102170.55;107261;1256;112321;-62
2023/12/28 05:40:44;;;;;;;13.20;7.50;;;;;;;-2.75;72.61;102168.65;107147;1260;108969;-62
2023/12/28 05:43:13;;;;;;;14.20;7.20;;;;;;;-2.77;72.66;102172.88;107160;1256;107803;-63
2023/12/28 05:45:41;;;;;;;12.10;7.30;;;;;;;-2.78;72.55;102180.44;107151;1257;97928;-62
2023/12/28 05:48:09;;;;;;;17.40;6.70;;;;;;;-2.82;72.36;102181.17;107238;1256;97745;-63
2023/12/28 05:50:38;;;;;;;15.60;8.50;;;;;;;-2.87;72.36;102178.06;107363;1257;111453;-63
2023/12/28 05:53:06;;;;;;;20.00;7.40;;;;;;;-2.88;72.32;102180.01;107222;1256;107633;-63
2023/12/28 05:55:35;;;;;;;12.90;7.00;;;;;;;-2.90;72.19;102172.65;107331;1257;108344;-62
2023/12/28 05:58:04;;;;;;;21.90;8.50;;;;;;;-2.94;72.37;102174.45;107296;1257;97842;-62
2023/12/28 06:00:32;;;;;;;19.50;8.80;;;;;;;-2.95;72.32;102174.64;107312;1255;97932;-62
2023/12/28 06:03:04;;;;;;;23.00;9.10;;;;;;;-2.97;72.30;102174.13;107261;1256;111136;-61
2023/12/28 06:05:33;;;;;;;28.40;11.50;;;;;;;-2.99;72.43;102176.60;107141;1256;108538;-61
2023/12/28 06:08:01;;;;;;;30.50;12.70;;;;;;;-3.03;72.30;102169.79;107305;1256;106261;-63
2023/12/28 06:10:30;;;;;;;27.40;12.60;;;;;;;-3.05;72.08;102172.78;107392;1259;98047;-61
2023/12/28 06:12:58;;;;;;;21.00;11.70;;;;;;;-3.06;71.97;102175.98;107321;1256;98356;-60
2023/12/28 06:15:27;;;;;;;29.20;13.00;;;;;;;-3.04;73.02;102167.70;107297;1257;112314;-63
2023/12/28 06:17:55;;;;;;;22.60;11.10;;;;;;;-3.03;72.86;102175.23;107349;1259;107648;-62
2023/12/28 06:20:24;;;;;;;23.90;12.10;;;;;;;-3.02;73.11;102172.42;107322;1259;107615;-65
2023/12/28 06:22:53;;;;;;;24.20;10.90;;;;;;;-2.97;73.63;102160.08;107268;1256;97907;-65
2023/12/28 06:25:21;;;;;;;18.50;9.10;;;;;;;-2.89;73.33;102158.08;107112;1256;97876;-62
2023/12/28 06:27:49;;;;;;;16.70;9.00;;;;;;;-2.81;73.10;102155.17;107100;1257;111209;-64
2023/12/28 06:30:18;;;;;;;16.70;7.30;;;;;;;-2.74;73.58;102154.59;107163;1256;107674;-63
2023/12/28 06:32:47;;;;;;;23.00;7.90;;;;;;;-2.66;73.47;102153.63;107194;1257;108253;-62
2023/12/28 06:35:15;;;;;;;18.90;8.30;;;;;;;-2.59;73.42;102147.03;107345;1256;97823;-63
2023/12/28 06:37:43;;;;;;;16.70;10.40;;;;;;;-2.49;73.87;102140.25;107296;1256;97791;-62
2023/12/28 06:40:12;;;;;;;15.50;9.00;;;;;;;-2.40;73.84;102131.35;107125;1257;112568;-62
2023/12/28 06:42:43;;;;;;;14.30;8.50;;;;;;;-2.27;74.00;102129.08;107132;1255;108368;-61
2023/12/28 06:45:12;;;;;;;15.00;8.20;;;;;;;-2.13;73.90;102126.42;107312;1257;108314;-62
2023/12/28 06:47:40;;;;;;;18.50;9.20;;;;;;;-2.05;73.91;102132.48;107311;1255;97861;-63
2023/12/28 06:50:09;;;;;;;22.00;10.50;;;;;;;-1.94;73.88;102125.11;107267;1256;98396;-63
2023/12/28 06:52:38;;;;;;;28.30;11.10;;;;;;;-1.78;74.56;102118.89;107274;1256;110900;-64
2023/12/28 06:55:06;;;;;;;22.60;10.00;;;;;;;-1.61;74.97;102114.77;107164;1256;108656;-62
2023/12/28 06:57:35;;;;;;;21.40;9.20;;;;;;;-1.44;74.50;102114.83;107099;1257;107817;-63
2023/12/28 07:00:04;;;;;;;16.80;9.70;;;;;;;-1.28;74.89;102115.45;107241;1255;97993;-63
2023/12/28 07:02:32;;;;;;;18.60;9.20;;;;;;;-1.13;74.77;102116.24;107333;1257;97974;-62
2023/12/28 07:05:01;;;;;;;24.10;10.30;;;;;;;-1.02;74.51;102111.99;107320;1257;111449;-62
2023/12/28 07:07:29;;;;;;;22.60;10.10;;;;;;;-0.87;74.68;102102.90;107158;1257;108081;-62
2023/12/28 07:09:58;;;;;;;26.00;10.80;;;;;;;-0.73;74.80;102105.98;107092;1256;108026;-63
2023/12/28 07:12:26;;;;;;;24.20;10.60;;;;;;;-0.60;74.79;102109.95;107121;1256;97874;-64
2023/12/28 07:14:55;;;;;;;22.50;12.30;;;;;;;-0.45;74.66;102112.30;107126;1256;97727;-62
2023/12/28 07:17:23;;;;;;;32.80;11.90;;;;;;;-0.37;74.40;102111.42;107179;1256;112736;-61
2023/12/28 07:19:52;;;;;;;30.40;11.90;;;;;;;-0.29;74.57;102111.08;107264;1257;107846;-63
2023/12/28 07:22:21;;;;;;;23.80;10.80;;;;;;;-0.22;74.50;102105.98;107340;1257;107497;-62
2023/12/28 07:24:49;;;;;;;26.10;11.70;;;;;;;-0.16;74.35;102108.50;107252;1257;97845;-61
2023/12/28 07:27:18;;;;;;;31.60;12.40;;;;;;;-0.08;74.41;102107.28;107338;1256;97839;-61
2023/12/28 07:29:47;;;;;;;25.60;12.60;;;;;;;-0.02;74.21;102112.77;107174;1259;113246;-64
2023/12/28 07:32:16;;;;;;;26.70;13.20;;;;;;;0.05;74.24;102116.52;107209;1257;108705;-63
2023/12/28 07:34:44;;;;;;;30.40;12.40;;;;;;;0.11;74.02;102123.61;107290;1256;107320;-64
2023/12/28 07:37:13;;;;;;;32.70;14.70;;;;;;;0.16;73.87;102125.96;107283;1257;97842;-62
2023/12/28 07:39:41;;;;;;;30.30;12.90;;;;;;;0.22;73.91;102123.52;107225;1256;97766;-62
2023/12/28 07:42:10;;;;;;;26.30;13.30;;;;;;;0.30;73.99;102119.08;107132;1256;112025;-63
2023/12/28 07:44:40;;;;;;;29.70;15.10;;;;;;;0.36;73.97;102111.00;107161;1257;108088;-62
2023/12/28 07:47:08;;;;;;;23.90;10.80;;;;;;;0.43;73.85;102111.18;107351;1255;106465;-63
2023/12/28 07:49:37;;;;;;;25.60;13.20;;;;;;;0.54;73.71;102112.33;107185;1256;97852;-62
2023/12/28 07:52:06;;;;;;;19.30;10.20;;;;;;;0.66;73.75;102112.23;107196;1260;97830;-63
2023/12/28 07:54:34;;;;;;;30.30;13.50;;;;;;;0.78;73.68;102120.38;107203;1256;112142;-62
2023/12/28 07:57:03;;;;;;;33.60;14.50;;;;;;;0.92;73.70;102126.39;107202;1256;107620;-62
2023/12/28 07:59:32;;;;;;;29.40;11.20;;;;;;;1.06;73.74;102124.05;107191;1256;107093;-63
2023/12/28 08:02:00;;;;;;;27.10;12.10;;;;;;;1.21;73.59;102114.83;107289;1256;97858;-65
2023/12/28 08:04:29;;;;;;;27.80;13.90;;;;;;;1.35;73.57;102117.63;107267;1256;97784;-62
2023/12/28 08:06:58;;;;;;;25.40;14.10;;;;;;;1.49;73.42;102118.46;107142;1256;111604;-63
2023/12/28 08:09:27;;;;;;;37.10;17.60;;;;;;;1.67;73.30;102118.99;107164;1257;107583;-63
2023/12/28 08:11:55;;;;;;;32.70;15.60;;;;;;;1.88;73.51;102114.30;107111;1256;108211;-62
2023/12/28 08:14:24;;;;;;;26.30;13.40;;;;;;;2.09;73.56;102114.38;107109;1256;97913;-62
2023/12/28 08:16:53;;;;;;;24.30;12.70;;;;;;;2.29;73.34;102118.52;107266;1256;98364;-62
2023/12/28 08:19:21;;;;;;;28.70;12.00;;;;;;;2.53;73.35;102126.23;107255;1256;110704;-62
2023/12/28 08:21:50;;;;;;;30.90;14.30;;;;;;;2.77;72.82;102125.80;107101;1256;108646;-62
2023/12/28 08:24:18;;;;;;;25.60;13.30;;;;;;;3.10;72.43;102118.46;107184;1256;109492;-62
2023/12/28 08:26:47;;;;;;;26.00;12.00;;;;;;;3.47;72.12;102118.02;107308;1257;98041;-62
2023/12/28 08:29:15;;;;;;;31.70;12.30;;;;;;;3.77;71.85;102111.95;107284;1257;97920;-62
2023/12/28 08:31:44;;;;;;;22.90;11.20;;;;;;;3.98;71.20;102102.23;107129;1260;113227;-62
2023/12/28 08:34:15;;;;;;;23.90;12.50;;;;;;;4.21;70.66;102102.23;107176;1256;108399;-66
2023/12/28 08:36:44;;;;;;;28.60;15.70;;;;;;;4.40;70.60;102098.98;107146;1260;107899;-64
2023/12/28 08:39:13;;;;;;;21.80;9.80;;;;;;;4.67;69.74;102097.13;107185;1256;97768;-64
2023/12/28 08:41:41;;;;;;;19.30;8.90;;;;;;;5.10;68.52;102090.30;107171;1256;97855;-63
2023/12/28 08:44:10;;;;;;;22.80;8.70;;;;;;;5.62;67.84;102087.96;106867;1257;508734;-63
2023/12/28 08:46:38;;;;;;;19.40;8.90;;;;;;;6.17;66.31;102078.06;107347;1257;107497;-63
2023/12/28 08:49:06;;;;;;;27.30;9.00;;;;;;;6.58;64.55;102071.27;107231;1256;108256;-63
2023/12/28 08:51:35;;;;;;;18.10;9.10;;;;;;;6.89;64.94;102063.23;107174;1257;98059;-63
2023/12/28 08:54:03;;;;;;;21.20;8.90;;;;;;;7.28;63.77;102057.98;107220;1256;97713;-63
2023/12/28 08:56:32;;;;;;;23.70;12.90;;;;;;;7.31;62.34;102053.90;107176;1256;111993;-62
2023/12/28 08:59:00;;;;;;;18.20;9.40;;;;;;;7.12;60.70;102048.44;107179;1256;108361;-61
2023/12/28 09:01:29;;;;;;;24.80;9.90;;;;;;;7.01;60.59;102042.98;107266;1257;109007;-63
2023/12/28 09:03:59;;;;;;;20.60;9.20;;;;;;;7.08;60.38;102045.16;107287;1259;97842;-65
2023/12/28 09:06:27;;;;;;;16.50;9.50;;;;;;;7.26;60.96;102043.61;107242;1256;97935;-63
2023/12/28 09:08:56;;;;;;;19.20;9.60;;;;;;;7.64;61.16;102033.48;107286;1257;112201;-63
2023/12/28 09:11:25;;;;;;;18.70;8.10;;;;;;;7.91;60.87;102032.91;107352;1259;106743;-62
2023/12/28 09:13:53;;;;;;;22.60;9.80;;;;;;;7.97;60.04;102026.98;107278;1256;108695;-64
2023/12/28 09:16:21;;;;;;;24.00;9.00;;;;;;;8.00;59.86;102024.01;107212;1255;97856;-63
2023/12/28 09:18:50;;;;;;;20.00;8.50;;;;;;;7.99;59.15;102021.19;107372;1259;98492;-63
2023/12/28 09:21:18;;;;;;;24.10;8.50;;;;;;;7.91;58.42;102018.42;107185;1256;110447;-64
2023/12/28 09:23:47;;;;;;;21.30;8.80;;;;;;;7.86;58.63;102016.93;107357;1254;107723;-63
2023/12/28 09:26:15;;;;;;;21.90;8.10;;;;;;;7.86;58.35;102016.73;107308;1254;108134;-62
2023/12/28 09:28:44;;;;;;;31.30;9.10;;;;;;;7.84;57.85;102020.98;107232;1255;97822;-61
2023/12/28 09:31:12;;;;;;;18.00;9.10;;;;;;;7.92;57.93;102011.95;107271;1254;97743;-62
2023/12/28 09:33:40;;;;;;;20.70;8.90;;;;;;;8.06;58.17;102008.29;107328;1259;110670;-63
2023/12/28 09:36:12;;;;;;;18.70;8.40;;;;;;;8.20;58.09;102004.60;107361;1257;108774;-64
2023/12/28 09:38:41;;;;;;;17.90;9.40;;;;;;;8.34;57.90;101997.52;107329;1259;107581;-64
2023/12/28 09:41:17;;;;;;;19.30;8.60;;;;;;;8.42;57.57;101984.88;107333;1257;97852;-62
2023/12/28 09:44:11;;;;;;;18.50;9.30;;;;;;;8.44;56.88;101972.63;107326;1256;98399;-63
2023/12/28 09:46:43;;;;;;;19.70;9.50;;;;;;;8.44;56.32;101964.59;107239;1257;111872;-64
2023/12/28 09:49:12;;;;;;;17.40;8.80;;;;;;;8.56;56.28;101958.88;107323;1256;107665;-63
2023/12/28 09:51:40;;;;;;;13.80;7.10;;;;;;;8.79;54.95;101960.72;107262;1257;108776;-63
2023/12/28 09:54:09;;;;;;;16.40;8.20;;;;;;;9.11;55.00;101958.90;107299;1255;97857;-63
2023/12/28 09:56:38;;;;;;;22.90;7.10;;;;;;;9.46;54.65;101961.52;107338;1256;97868;-63
2023/12/28 09:59:07;;;;;;;18.70;8.70;;;;;;;9.70;53.77;101959.91;107249;1256;111980;-63
2023/12/28 10:01:36;;;;;;;21.20;8.70;;;;;;;10.02;53.62;101952.48;107270;1257;107374;-62
2023/12/28 10:04:05;;;;;;;19.10;8.10;;;;;;;10.50;53.73;101946.89;107213;1260;107587;-62
2023/12/28 10:06:34;;;;;;;19.20;7.50;;;;;;;10.97;53.04;101952.91;107181;1256;97845;-62
2023/12/28 10:09:03;;;;;;;20.30;7.20;;;;;;;11.27;51.85;101948.96;107277;1260;97688;-63
2023/12/28 10:11:32;;;;;;;13.20;7.20;;;;;;;11.41;51.50;101945.08;107325;1256;112237;-64
2023/12/28 10:14:00;;;;;;;14.00;6.60;;;;;;;11.25;50.26;101946.80;107230;1258;108620;-64
2023/12/28 10:16:28;;;;;;;13.90;7.00;;;;;;;11.12;51.03;101948.99;107190;1256;107053;-65
2023/12/28 10:18:57;;;;;;;19.40;8.40;;;;;;;11.10;50.32;101938.72;107232;1255;97892;-64
2023/12/28 10:21:26;;;;;;;21.00;7.90;;;;;;;10.96;50.57;101942.06;107411;1257;97830;-63
2023/12/28 10:23:55;;;;;;;27.70;8.90;;;;;;;10.92;50.95;101946.84;107230;1256;110829;-63
2023/12/28 10:26:24;;;;;;;15.90;8.20;;;;;;;11.05;51.02;101941.95;107207;1256;109367;-64
2023/12/28 10:29:05;;;;;;;17.10;7.20;;;;;;;11.09;49.31;101939.67;107043;1254;108868;-64
2023/12/28 10:31:33;;;;;;;14.90;7.90;;;;;;;11.01;49.75;101938.09;107262;1254;97906;-63
2023/12/28 10:34:03;;;;;;;25.30;11.90;;;;;;;10.85;49.83;101936.38;107306;1256;98418;-62
2023/12/28 10:36:36;;;;;;;25.80;12.10;;;;;;;10.77;49.98;101933.53;107290;1256;111773;-63
2023/12/28 10:39:08;;;;;;;35.20;14.00;;;;;;;11.08;50.07;101930.11;107359;1258;107613;-64
2023/12/28 10:41:37;;;;;;;27.80;13.00;;;;;;;11.54;49.33;101929.84;107305;1259;107624;-62
2023/12/28 10:44:10;;;;;;;34.60;14.30;;;;;;;11.86;48.52;101919.65;107230;1257;97931;-63
2023/12/28 10:46:44;;;;;;;37.20;16.30;;;;;;;12.19;48.82;101913.96;107234;1257;97743;-64
2023/12/28 10:49:16;;;;;;;32.60;13.10;;;;;;;12.68;48.04;101901.33;107316;1256;112210;-62
2023/12/28 10:51:52;;;;;;;29.80;14.00;;;;;;;13.15;47.76;101893.48;107339;1254;107445;-66
2023/12/28 10:54:26;;;;;;;28.10;12.50;;;;;;;13.85;47.36;101890.22;107309;1257;108461;-63
2023/12/28 10:57:31;;;;;;;30.20;15.00;;;;;;;14.37;46.03;101885.23;107293;1259;97882;-63
2023/12/28 10:59:59;;;;;;;;;;;;;;;14.96;44.91;101882.09;106908;1254;97818;-64
2023/12/28 11:02:33;;;;;;;31.60;12.60;;;;;;;15.14;43.47;101877.44;107369;1254;112093;-63
2023/12/28 11:05:03;;;;;;;20.30;11.40;;;;;;;15.35;42.83;101880.15;107358;1258;106916;-63
2023/12/28 11:07:33;;;;;;;21.90;10.30;;;;;;;15.48;42.28;101878.85;107357;1257;108135;-63
2023/12/28 11:10:06;;;;;;;28.90;11.80;;;;;;;15.94;42.61;101857.07;107350;1255;97961;-62
2023/12/28 11:12:37;;;;;;;20.50;11.00;;;;;;;16.12;41.45;101853.93;107311;1256;98003;-63